createdAt,value
2019-04-11T00:03:25.013Z,6.82
2019-04-11T00:08:28.329Z,6.89
2019-04-11T00:13:33.377Z,6.91
2019-04-11T00:18:36.701Z,6.81
2019-04-11T00:23:40.571Z,6.73
2019-04-11T00:28:43.850Z,6.70
2019-04-11T00:33:46.992Z,6.66
2019-04-11T00:38:50.585Z,6.64
2019-04-11T00:43:54.653Z,6.56
2019-04-11T00:48:57.982Z,6.52
2019-04-11T00:54:01.127Z,6.50
2019-04-11T00:59:04.198Z,6.51
2019-04-11T01:04:07.655Z,6.37
2019-04-11T01:09:12.430Z,6.37
2019-04-11T01:14:15.677Z,6.29
2019-04-11T01:19:18.811Z,6.32
2019-04-11T01:24:22.204Z,6.03
2019-04-11T01:29:25.424Z,5.88
2019-04-11T01:34:28.869Z,5.85
2019-04-11T01:40:03.653Z,5.75
2019-04-11T01:45:09.415Z,5.71
2019-04-11T01:50:16.828Z,5.70
2019-04-11T01:55:20.662Z,5.63
2019-04-11T02:00:42.517Z,5.68
2019-04-11T02:05:45.708Z,5.57
2019-04-11T02:10:48.874Z,5.50
2019-04-11T02:15:54.214Z,5.28
2019-04-11T02:20:57.637Z,5.31
2019-04-11T02:26:07.157Z,5.17
2019-04-11T02:31:12.261Z,5.18
2019-04-11T02:36:16.697Z,4.82
2019-04-11T02:41:21.091Z,4.85
2019-04-11T02:46:36.957Z,4.90
2019-04-11T02:51:31.016Z,5.01
2019-04-11T02:56:35.690Z,4.71
2019-04-11T03:01:39.874Z,4.59
2019-04-11T03:06:43.867Z,4.48
2019-04-11T03:11:49.290Z,4.33
2019-04-11T03:17:03.893Z,4.27
2019-04-11T03:21:59.354Z,4.40
2019-04-11T03:27:05.709Z,4.47
2019-04-11T03:32:48.902Z,4.60
2019-04-11T03:37:38.044Z,4.61
2019-04-11T03:42:38.194Z,4.62
2019-04-11T03:47:37.341Z,4.55
2019-04-11T03:52:30.604Z,4.74
2019-04-11T03:57:34.429Z,4.80
2019-04-11T04:02:38.975Z,4.84
2019-04-11T04:07:44.138Z,4.39
2019-04-11T04:12:48.123Z,4.35
2019-04-11T04:18:01.303Z,4.50
2019-04-11T04:23:23.042Z,4.33
2019-04-11T04:28:27.239Z,4.17
2019-04-11T04:33:30.784Z,4.40
2019-04-11T04:38:37.719Z,4.11
2019-04-11T04:43:43.587Z,3.82
2019-04-11T04:48:47.866Z,3.85
2019-04-11T04:53:52.139Z,3.80
2019-04-11T04:58:55.992Z,4.19
2019-04-11T05:03:59.226Z,4.09
2019-04-11T05:09:02.537Z,3.92
2019-04-11T05:14:07.066Z,3.87
2019-04-11T05:19:10.429Z,3.98
2019-04-11T05:24:14.500Z,3.68
2019-04-11T05:29:17.725Z,3.85
2019-04-11T05:34:20.684Z,3.69
2019-04-11T05:39:23.731Z,3.59
2019-04-11T05:44:26.714Z,3.80
2019-04-11T05:49:42.032Z,4.15
2019-04-11T05:54:49.801Z,3.93
2019-04-11T05:59:55.123Z,3.79
2019-04-11T06:05:05.391Z,3.60
2019-04-11T06:10:14.668Z,3.49
2019-04-11T06:15:29.263Z,3.84
2019-04-11T06:20:47.554Z,3.67
2019-04-11T06:25:57.593Z,3.68
2019-04-11T06:31:24.836Z,3.70
2019-04-11T06:36:48.249Z,3.92
2019-04-11T06:41:59.077Z,3.77
2019-04-11T06:47:30.657Z,4.02
2019-04-11T06:52:34.958Z,3.85
2019-04-11T06:57:38.322Z,3.61
2019-04-11T07:02:44.537Z,3.58
2019-04-11T07:07:49.978Z,3.57
2019-04-11T07:13:00.833Z,3.59
2019-04-11T07:18:31.109Z,3.46
2019-04-11T07:23:53.414Z,3.42
2019-04-11T07:29:17.276Z,3.82
2019-04-11T07:34:43.633Z,3.87
2019-04-11T07:40:26.640Z,3.91
2019-04-11T07:45:49.056Z,3.75
2019-04-11T07:50:54.989Z,3.71
2019-04-11T07:55:57.542Z,3.64
2019-04-11T08:01:29.427Z,3.44
2019-04-11T08:06:52.155Z,3.59
2019-04-11T08:12:04.541Z,3.58
2019-04-11T08:17:25.872Z,3.49
2019-04-11T08:22:50.075Z,3.33
2019-04-11T08:28:13.980Z,3.40
2019-04-11T08:33:18.311Z,3.45
2019-04-11T08:38:29.420Z,3.60
2019-04-11T08:43:33.053Z,3.46
2019-04-11T08:48:41.179Z,3.51
2019-04-11T08:54:19.536Z,3.45
2019-04-11T08:59:45.998Z,3.34
2019-04-11T09:05:14.683Z,3.52
2019-04-11T09:10:15.712Z,3.38
2019-04-11T09:15:37.511Z,3.30
2019-04-11T09:21:12.453Z,3.53
2019-04-11T09:26:42.466Z,3.31
2019-04-11T09:32:18.154Z,3.22
2019-04-11T09:37:46.630Z,3.03
2019-04-11T09:43:22.199Z,3.03
2019-04-11T09:48:44.403Z,3.03
2019-04-11T09:53:52.919Z,3.05
2019-04-11T09:58:58.262Z,3.16
2019-04-11T10:04:01.580Z,3.18
2019-04-11T10:09:08.091Z,3.26
2019-04-11T10:14:13.674Z,3.23
2019-04-11T10:19:38.115Z,3.23
2019-04-11T10:25:19.364Z,3.26
2019-04-11T10:30:48.260Z,3.49
2019-04-11T10:36:10.433Z,3.76
2019-04-11T10:41:32.657Z,4.01
2019-04-11T10:46:49.549Z,4.21
2019-04-11T10:51:58.747Z,4.41
2019-04-11T10:57:24.339Z,4.34
2019-04-11T11:02:53.638Z,4.48
2019-04-11T11:08:02.332Z,4.45
2019-04-11T11:13:25.676Z,4.67
2019-04-11T11:19:24.599Z,4.62
2019-04-11T11:24:33.838Z,4.68
2019-04-11T11:29:56.504Z,4.79
2019-04-11T11:35:25.265Z,4.79
2019-04-11T11:40:50.059Z,5.01
2019-04-11T11:46:25.712Z,5.25
2019-04-11T11:51:45.741Z,5.09
2019-04-11T11:56:49.078Z,5.16
2019-04-11T12:02:04.445Z,5.20
2019-04-11T12:07:09.406Z,5.37
2019-04-11T12:12:17.682Z,5.39
2019-04-11T12:17:47.039Z,5.46
2019-04-11T12:22:52.071Z,5.53
2019-04-11T12:28:14.701Z,5.62
2019-04-11T12:33:35.398Z,5.64
2019-04-11T12:38:56.062Z,5.70
2019-04-11T12:44:26.705Z,5.79
2019-04-11T12:49:52.989Z,5.65
2019-04-11T12:54:54.523Z,5.67
2019-04-11T13:00:05.996Z,5.91
2019-04-11T13:05:10.747Z,5.77
2019-04-11T13:10:32.125Z,5.81
2019-04-11T13:15:40.732Z,5.67
2019-04-11T13:21:03.694Z,5.75
2019-04-11T13:26:41.231Z,5.92
2019-04-11T13:32:02.547Z,5.77
2019-04-11T13:37:23.878Z,5.74
2019-04-11T13:42:44.982Z,5.75
2019-04-11T13:48:16.811Z,5.73
2019-04-11T13:53:37.849Z,5.65
2019-04-11T13:59:12.454Z,5.52
2019-04-11T14:04:21.318Z,5.46
2019-04-11T14:09:31.410Z,5.48
2019-04-11T14:14:36.552Z,5.62
2019-04-11T14:19:53.873Z,5.35
2019-04-11T14:25:15.072Z,5.49
2019-04-11T14:30:43.921Z,5.33
2019-04-11T14:36:32.615Z,5.45
2019-04-11T14:41:46.222Z,5.26
2019-04-11T14:47:11.927Z,5.41
2019-04-11T14:52:36.605Z,5.53
2019-04-11T14:58:02.161Z,5.46
2019-04-11T15:03:14.687Z,5.33
2019-04-11T15:08:30.806Z,4.93
2019-04-11T15:13:33.956Z,4.93
2019-04-11T15:18:42.072Z,5.01
2019-04-11T15:23:47.717Z,5.12
2019-04-11T15:29:22.110Z,4.87
2019-04-11T15:34:34.763Z,4.80
2019-04-11T15:39:56.170Z,5.02
2019-04-11T15:45:14.770Z,4.66
2019-04-11T15:50:35.993Z,4.65
2019-04-11T15:55:47.439Z,4.64
2019-04-11T16:00:58.397Z,4.61
2019-04-11T16:06:19.647Z,4.79
2019-04-11T16:11:42.188Z,4.87
2019-04-11T16:17:13.948Z,4.82
2019-04-11T16:22:34.868Z,4.87
2019-04-11T16:28:07.148Z,4.91
2019-04-11T16:33:23.419Z,4.92
2019-04-11T16:38:27.358Z,4.97
2019-04-11T16:43:32.086Z,5.01
2019-04-11T16:48:35.292Z,4.96
2019-04-11T16:53:38.318Z,5.04
2019-04-11T16:58:43.024Z,5.07
2019-04-11T17:03:45.998Z,5.08
2019-04-11T17:08:56.395Z,5.05
2019-04-11T17:13:58.998Z,4.99
2019-04-11T17:19:04.957Z,5.00
2019-04-11T17:24:06.919Z,4.86
2019-04-11T17:29:09.891Z,4.97
2019-04-11T17:34:12.902Z,4.99
2019-04-11T17:39:15.918Z,5.00
2019-04-11T17:44:18.904Z,4.89
2019-04-11T17:49:22.005Z,4.87
2019-04-11T17:54:25.587Z,4.81
2019-04-11T17:59:29.139Z,4.85
2019-04-11T18:04:32.273Z,4.83
2019-04-11T18:09:35.349Z,4.76
2019-04-11T18:14:38.344Z,4.79
2019-04-11T18:19:41.475Z,4.77
2019-04-11T18:24:44.623Z,4.80
2019-04-11T18:29:47.783Z,4.79
2019-04-11T18:34:50.738Z,4.81
2019-04-11T18:39:53.754Z,4.80
2019-04-11T18:44:56.725Z,4.78
2019-04-11T18:49:59.826Z,4.80
2019-04-11T18:55:04.460Z,4.81
2019-04-11T19:00:12.979Z,4.82
2019-04-11T19:05:27.873Z,4.64
2019-04-11T19:10:22.035Z,4.60
2019-04-11T19:15:25.062Z,4.73
2019-04-11T19:20:28.155Z,4.78
2019-04-11T19:25:31.697Z,4.79
2019-04-11T19:30:34.912Z,4.83
2019-04-11T19:35:41.345Z,4.81
2019-04-11T19:40:44.175Z,4.81
2019-04-11T19:45:50.070Z,4.82
2019-04-11T19:50:53.203Z,4.76
2019-04-11T19:56:22.081Z,4.71
2019-04-11T20:01:25.131Z,4.47
2019-04-11T20:06:28.171Z,4.47
2019-04-11T20:11:31.157Z,4.42
2019-04-11T20:16:41.837Z,4.55
2019-04-11T20:21:39.093Z,4.50
2019-04-11T20:26:42.158Z,4.52
2019-04-11T20:31:45.553Z,4.37
2019-04-11T20:36:48.751Z,4.44
2019-04-11T20:41:53.615Z,4.30
2019-04-11T20:47:00.131Z,4.29
2019-04-11T20:52:01.910Z,4.29
2019-04-11T20:57:05.009Z,4.21
2019-04-11T21:02:08.216Z,4.35
2019-04-11T21:07:12.040Z,4.49
2019-04-11T21:12:17.084Z,4.65
2019-04-11T21:17:21.218Z,4.47
2019-04-11T21:22:24.871Z,4.46
2019-04-11T21:27:29.020Z,4.44
2019-04-11T21:32:32.996Z,4.44
2019-04-11T21:37:36.771Z,4.42
2019-04-11T21:42:40.465Z,4.53
2019-04-11T21:47:43.573Z,4.68
2019-04-11T21:52:46.749Z,4.68
2019-04-11T21:57:49.965Z,4.73
2019-04-11T22:02:54.346Z,4.66
2019-04-11T22:07:58.100Z,4.57
2019-04-11T22:13:01.480Z,4.54
2019-04-11T22:18:04.877Z,4.61
2019-04-11T22:23:08.007Z,4.70
2019-04-11T22:28:11.122Z,4.73
2019-04-11T22:33:32.946Z,4.73
2019-04-11T22:38:36.204Z,4.74
2019-04-11T22:43:39.443Z,4.61
2019-04-11T22:48:42.620Z,4.60
2019-04-11T22:53:45.803Z,4.51
2019-04-11T22:58:49.028Z,4.41
2019-04-11T23:04:01.539Z,4.38
2019-04-11T23:09:06.759Z,4.41
2019-04-11T23:14:09.887Z,4.44
2019-04-11T23:19:14.362Z,4.40
2019-04-11T23:24:17.727Z,4.41
2019-04-11T23:29:21.147Z,4.43
2019-04-11T23:34:24.263Z,4.43
2019-04-11T23:39:27.447Z,4.22
2019-04-11T23:44:30.592Z,4.23
2019-04-11T23:49:33.790Z,4.22
2019-04-11T23:54:36.841Z,4.21
2019-04-11T23:59:39.988Z,4.19
